sensor_id;sensor_type;location;lat;lon;timestamp;P1;durP1;ratioP1;P2;durP2;ratioP2
3083;SDS011;1552;51.952;7.618;2023-09-07T00:00:57;4.40;;;2.45;;
3083;SDS011;1552;51.952;7.618;2023-09-07T00:03:24;3.88;;;1.95;;
3083;SDS011;1552;51.952;7.618;2023-09-07T00:05:50;4.18;;;2.70;;
3083;SDS011;1552;51.952;7.618;2023-09-07T00:08:17;7.72;;;2.92;;
3083;SDS011;1552;51.952;7.618;2023-09-07T00:10:43;3.53;;;2.38;;
3083;SDS011;1552;51.952;7.618;2023-09-07T00:13:11;4.55;;;2.30;;
3083;SDS011;1552;51.952;7.618;2023-09-07T00:15:37;4.93;;;2.90;;
3083;SDS011;1552;51.952;7.618;2023-09-07T00:18:04;5.95;;;3.22;;
3083;SDS011;1552;51.952;7.618;2023-09-07T00:20:31;3.92;;;2.75;;
3083;SDS011;1552;51.952;7.618;2023-09-07T00:22:58;3.75;;;2.60;;
3083;SDS011;1552;51.952;7.618;2023-09-07T00:25:25;3.85;;;2.33;;
3083;SDS011;1552;51.952;7.618;2023-09-07T00:27:51;4.47;;;3.20;;
3083;SDS011;1552;51.952;7.618;2023-09-07T00:30:19;2.97;;;2.40;;
3083;SDS011;1552;51.952;7.618;2023-09-07T00:32:46;3.45;;;2.50;;
3083;SDS011;1552;51.952;7.618;2023-09-07T00:35:13;4.40;;;2.55;;
3083;SDS011;1552;51.952;7.618;2023-09-07T00:37:39;4.10;;;2.50;;
3083;SDS011;1552;51.952;7.618;2023-09-07T00:40:06;4.05;;;2.67;;
3083;SDS011;1552;51.952;7.618;2023-09-07T00:42:34;6.28;;;2.17;;
3083;SDS011;1552;51.952;7.618;2023-09-07T00:45:00;2.97;;;2.55;;
3083;SDS011;1552;51.952;7.618;2023-09-07T00:47:28;3.00;;;2.00;;
3083;SDS011;1552;51.952;7.618;2023-09-07T00:49:55;2.83;;;2.17;;
3083;SDS011;1552;51.952;7.618;2023-09-07T00:52:23;3.05;;;2.40;;
3083;SDS011;1552;51.952;7.618;2023-09-07T00:54:49;3.67;;;2.33;;
3083;SDS011;1552;51.952;7.618;2023-09-07T00:57:16;5.07;;;2.97;;
3083;SDS011;1552;51.952;7.618;2023-09-07T00:59:42;5.70;;;2.25;;
3083;SDS011;1552;51.952;7.618;2023-09-07T01:02:10;5.40;;;2.58;;
3083;SDS011;1552;51.952;7.618;2023-09-07T01:04:38;4.82;;;2.97;;
3083;SDS011;1552;51.952;7.618;2023-09-07T01:07:12;4.55;;;2.72;;
3083;SDS011;1552;51.952;7.618;2023-09-07T01:09:41;5.07;;;2.85;;
3083;SDS011;1552;51.952;7.618;2023-09-07T01:12:14;3.95;;;2.40;;
3083;SDS011;1552;51.952;7.618;2023-09-07T01:14:40;4.32;;;2.50;;
3083;SDS011;1552;51.952;7.618;2023-09-07T01:17:07;4.63;;;2.45;;
3083;SDS011;1552;51.952;7.618;2023-09-07T01:19:40;3.90;;;2.55;;
3083;SDS011;1552;51.952;7.618;2023-09-07T01:22:10;2.95;;;2.50;;
3083;SDS011;1552;51.952;7.618;2023-09-07T01:24:37;5.15;;;3.05;;
3083;SDS011;1552;51.952;7.618;2023-09-07T01:27:04;2.55;;;2.22;;
3083;SDS011;1552;51.952;7.618;2023-09-07T01:29:30;3.42;;;2.55;;
3083;SDS011;1552;51.952;7.618;2023-09-07T01:31:58;7.25;;;3.17;;
3083;SDS011;1552;51.952;7.618;2023-09-07T01:34:24;4.53;;;2.50;;
3083;SDS011;1552;51.952;7.618;2023-09-07T01:36:50;3.83;;;2.85;;
3083;SDS011;1552;51.952;7.618;2023-09-07T01:39:29;4.85;;;2.88;;
3083;SDS011;1552;51.952;7.618;2023-09-07T01:41:55;3.35;;;2.75;;
3083;SDS011;1552;51.952;7.618;2023-09-07T01:44:21;3.60;;;2.83;;
3083;SDS011;1552;51.952;7.618;2023-09-07T01:46:48;5.85;;;2.90;;
3083;SDS011;1552;51.952;7.618;2023-09-07T01:49:14;5.75;;;2.72;;
3083;SDS011;1552;51.952;7.618;2023-09-07T01:51:40;8.10;;;2.83;;
3083;SDS011;1552;51.952;7.618;2023-09-07T01:54:07;3.75;;;3.03;;
3083;SDS011;1552;51.952;7.618;2023-09-07T01:56:36;5.40;;;2.95;;
3083;SDS011;1552;51.952;7.618;2023-09-07T01:59:04;4.78;;;2.92;;
3083;SDS011;1552;51.952;7.618;2023-09-07T02:01:31;4.05;;;2.83;;
3083;SDS011;1552;51.952;7.618;2023-09-07T02:04:10;6.15;;;3.25;;
3083;SDS011;1552;51.952;7.618;2023-09-07T02:06:36;7.68;;;3.28;;
3083;SDS011;1552;51.952;7.618;2023-09-07T02:09:03;7.75;;;3.45;;
3083;SDS011;1552;51.952;7.618;2023-09-07T02:11:30;3.88;;;2.75;;
3083;SDS011;1552;51.952;7.618;2023-09-07T02:13:57;4.60;;;3.17;;
3083;SDS011;1552;51.952;7.618;2023-09-07T02:16:24;6.00;;;2.70;;
3083;SDS011;1552;51.952;7.618;2023-09-07T02:18:59;4.18;;;3.00;;
3083;SDS011;1552;51.952;7.618;2023-09-07T02:21:27;5.00;;;3.05;;
3083;SDS011;1552;51.952;7.618;2023-09-07T02:23:59;3.88;;;2.95;;
3083;SDS011;1552;51.952;7.618;2023-09-07T02:26:28;4.03;;;2.88;;
3083;SDS011;1552;51.952;7.618;2023-09-07T02:28:55;4.70;;;2.80;;
3083;SDS011;1552;51.952;7.618;2023-09-07T02:31:22;3.28;;;2.47;;
3083;SDS011;1552;51.952;7.618;2023-09-07T02:33:49;3.35;;;2.70;;
3083;SDS011;1552;51.952;7.618;2023-09-07T02:36:15;4.18;;;2.47;;
3083;SDS011;1552;51.952;7.618;2023-09-07T02:38:41;5.38;;;3.30;;
3083;SDS011;1552;51.952;7.618;2023-09-07T02:41:08;3.20;;;2.22;;
3083;SDS011;1552;51.952;7.618;2023-09-07T02:43:34;5.25;;;2.65;;
3083;SDS011;1552;51.952;7.618;2023-09-07T02:46:01;2.78;;;2.50;;
3083;SDS011;1552;51.952;7.618;2023-09-07T02:48:29;8.15;;;3.08;;
3083;SDS011;1552;51.952;7.618;2023-09-07T02:50:55;4.35;;;2.63;;
3083;SDS011;1552;51.952;7.618;2023-09-07T02:53:23;2.90;;;2.42;;
3083;SDS011;1552;51.952;7.618;2023-09-07T02:55:49;3.22;;;2.40;;
3083;SDS011;1552;51.952;7.618;2023-09-07T02:58:16;5.95;;;3.20;;
3083;SDS011;1552;51.952;7.618;2023-09-07T03:00:43;6.35;;;2.70;;
3083;SDS011;1552;51.952;7.618;2023-09-07T03:03:10;5.10;;;2.83;;
3083;SDS011;1552;51.952;7.618;2023-09-07T03:05:39;4.95;;;2.80;;
3083;SDS011;1552;51.952;7.618;2023-09-07T03:08:07;11.07;;;2.60;;
3083;SDS011;1552;51.952;7.618;2023-09-07T03:10:36;7.50;;;3.33;;
3083;SDS011;1552;51.952;7.618;2023-09-07T03:13:04;5.22;;;3.20;;
3083;SDS011;1552;51.952;7.618;2023-09-07T03:15:30;3.22;;;2.90;;
3083;SDS011;1552;51.952;7.618;2023-09-07T03:17:57;6.43;;;3.40;;
3083;SDS011;1552;51.952;7.618;2023-09-07T03:20:23;4.55;;;3.10;;
3083;SDS011;1552;51.952;7.618;2023-09-07T03:22:51;4.07;;;3.10;;
3083;SDS011;1552;51.952;7.618;2023-09-07T03:25:17;2.85;;;2.53;;
3083;SDS011;1552;51.952;7.618;2023-09-07T03:27:44;3.88;;;2.85;;
3083;SDS011;1552;51.952;7.618;2023-09-07T03:30:10;3.85;;;2.55;;
3083;SDS011;1552;51.952;7.618;2023-09-07T03:32:37;4.18;;;3.38;;
3083;SDS011;1552;51.952;7.618;2023-09-07T03:35:04;7.47;;;3.30;;
3083;SDS011;1552;51.952;7.618;2023-09-07T03:37:32;4.05;;;3.38;;
3083;SDS011;1552;51.952;7.618;2023-09-07T03:39:59;5.15;;;3.42;;
3083;SDS011;1552;51.952;7.618;2023-09-07T03:42:26;18.38;;;4.18;;
3083;SDS011;1552;51.952;7.618;2023-09-07T03:44:59;3.17;;;2.40;;
3083;SDS011;1552;51.952;7.618;2023-09-07T03:47:28;5.35;;;3.10;;
3083;SDS011;1552;51.952;7.618;2023-09-07T03:49:55;7.40;;;3.45;;
3083;SDS011;1552;51.952;7.618;2023-09-07T03:52:21;2.80;;;2.58;;
3083;SDS011;1552;51.952;7.618;2023-09-07T03:54:49;4.10;;;3.05;;
3083;SDS011;1552;51.952;7.618;2023-09-07T03:57:17;5.40;;;3.47;;
3083;SDS011;1552;51.952;7.618;2023-09-07T03:59:43;5.25;;;3.60;;
3083;SDS011;1552;51.952;7.618;2023-09-07T04:02:09;6.07;;;3.10;;
3083;SDS011;1552;51.952;7.618;2023-09-07T04:04:36;4.45;;;3.42;;
3083;SDS011;1552;51.952;7.618;2023-09-07T04:07:03;3.97;;;2.85;;
3083;SDS011;1552;51.952;7.618;2023-09-07T04:09:30;5.50;;;3.08;;
3083;SDS011;1552;51.952;7.618;2023-09-07T04:12:00;5.65;;;3.08;;
3083;SDS011;1552;51.952;7.618;2023-09-07T04:14:30;4.35;;;3.10;;
3083;SDS011;1552;51.952;7.618;2023-09-07T04:16:56;3.83;;;2.80;;
3083;SDS011;1552;51.952;7.618;2023-09-07T04:19:23;3.83;;;3.38;;
3083;SDS011;1552;51.952;7.618;2023-09-07T04:21:50;8.52;;;3.47;;
3083;SDS011;1552;51.952;7.618;2023-09-07T04:24:17;3.28;;;2.60;;
3083;SDS011;1552;51.952;7.618;2023-09-07T04:26:47;3.88;;;3.42;;
3083;SDS011;1552;51.952;7.618;2023-09-07T04:29:14;6.10;;;4.00;;
3083;SDS011;1552;51.952;7.618;2023-09-07T04:31:42;5.38;;;3.08;;
3083;SDS011;1552;51.952;7.618;2023-09-07T04:34:11;5.07;;;3.42;;
3083;SDS011;1552;51.952;7.618;2023-09-07T04:36:37;4.93;;;3.25;;
3083;SDS011;1552;51.952;7.618;2023-09-07T04:39:04;5.93;;;3.58;;
3083;SDS011;1552;51.952;7.618;2023-09-07T04:41:33;6.25;;;3.17;;
3083;SDS011;1552;51.952;7.618;2023-09-07T04:44:02;5.93;;;3.58;;
3083;SDS011;1552;51.952;7.618;2023-09-07T04:46:29;6.95;;;3.97;;
3083;SDS011;1552;51.952;7.618;2023-09-07T04:48:56;5.57;;;3.65;;
3083;SDS011;1552;51.952;7.618;2023-09-07T04:51:23;4.35;;;3.17;;
3083;SDS011;1552;51.952;7.618;2023-09-07T04:53:50;6.72;;;3.08;;
3083;SDS011;1552;51.952;7.618;2023-09-07T04:56:17;6.68;;;3.03;;
3083;SDS011;1552;51.952;7.618;2023-09-07T04:58:44;6.45;;;3.83;;
3083;SDS011;1552;51.952;7.618;2023-09-07T05:01:11;5.03;;;3.60;;
3083;SDS011;1552;51.952;7.618;2023-09-07T05:03:38;6.18;;;3.63;;
3083;SDS011;1552;51.952;7.618;2023-09-07T05:06:06;8.98;;;3.72;;
3083;SDS011;1552;51.952;7.618;2023-09-07T05:08:32;16.48;;;3.60;;
3083;SDS011;1552;51.952;7.618;2023-09-07T05:11:00;6.25;;;3.53;;
3083;SDS011;1552;51.952;7.618;2023-09-07T05:13:28;6.32;;;3.03;;
3083;SDS011;1552;51.952;7.618;2023-09-07T05:15:55;5.38;;;3.47;;
3083;SDS011;1552;51.952;7.618;2023-09-07T05:18:22;4.57;;;3.47;;
3083;SDS011;1552;51.952;7.618;2023-09-07T05:20:48;6.72;;;4.07;;
3083;SDS011;1552;51.952;7.618;2023-09-07T05:23:18;4.32;;;3.30;;
3083;SDS011;1552;51.952;7.618;2023-09-07T05:25:44;6.20;;;4.25;;
3083;SDS011;1552;51.952;7.618;2023-09-07T05:28:12;3.47;;;2.45;;
3083;SDS011;1552;51.952;7.618;2023-09-07T05:30:38;7.35;;;3.67;;
3083;SDS011;1552;51.952;7.618;2023-09-07T05:33:05;5.25;;;3.60;;
3083;SDS011;1552;51.952;7.618;2023-09-07T05:35:31;6.43;;;3.40;;
3083;SDS011;1552;51.952;7.618;2023-09-07T05:37:58;5.25;;;3.33;;
3083;SDS011;1552;51.952;7.618;2023-09-07T05:40:26;6.20;;;3.08;;
3083;SDS011;1552;51.952;7.618;2023-09-07T05:42:53;5.72;;;3.67;;
3083;SDS011;1552;51.952;7.618;2023-09-07T05:45:19;5.28;;;3.38;;
3083;SDS011;1552;51.952;7.618;2023-09-07T05:47:46;6.63;;;4.13;;
3083;SDS011;1552;51.952;7.618;2023-09-07T05:50:12;6.10;;;3.85;;
3083;SDS011;1552;51.952;7.618;2023-09-07T05:52:38;7.47;;;3.78;;
3083;SDS011;1552;51.952;7.618;2023-09-07T05:55:05;6.40;;;3.65;;
3083;SDS011;1552;51.952;7.618;2023-09-07T05:57:33;7.82;;;3.90;;
3083;SDS011;1552;51.952;7.618;2023-09-07T06:00:00;5.78;;;3.15;;
3083;SDS011;1552;51.952;7.618;2023-09-07T06:02:26;6.15;;;3.50;;
3083;SDS011;1552;51.952;7.618;2023-09-07T06:04:52;7.00;;;3.28;;
3083;SDS011;1552;51.952;7.618;2023-09-07T06:07:19;5.88;;;3.20;;
3083;SDS011;1552;51.952;7.618;2023-09-07T06:09:45;4.47;;;3.38;;
3083;SDS011;1552;51.952;7.618;2023-09-07T06:12:12;7.05;;;3.42;;
3083;SDS011;1552;51.952;7.618;2023-09-07T06:14:40;6.10;;;3.50;;
3083;SDS011;1552;51.952;7.618;2023-09-07T06:17:06;6.32;;;3.33;;
3083;SDS011;1552;51.952;7.618;2023-09-07T06:19:33;5.95;;;3.63;;
3083;SDS011;1552;51.952;7.618;2023-09-07T06:21:59;6.68;;;3.78;;
3083;SDS011;1552;51.952;7.618;2023-09-07T06:24:28;6.95;;;4.15;;
3083;SDS011;1552;51.952;7.618;2023-09-07T06:26:54;11.63;;;6.78;;
3083;SDS011;1552;51.952;7.618;2023-09-07T06:29:21;9.73;;;4.80;;
3083;SDS011;1552;51.952;7.618;2023-09-07T06:31:48;5.57;;;3.80;;
3083;SDS011;1552;51.952;7.618;2023-09-07T06:34:17;6.53;;;3.53;;
3083;SDS011;1552;51.952;7.618;2023-09-07T06:36:43;3.95;;;3.20;;
3083;SDS011;1552;51.952;7.618;2023-09-07T06:39:16;5.68;;;3.17;;
3083;SDS011;1552;51.952;7.618;2023-09-07T06:41:44;5.63;;;2.97;;
3083;SDS011;1552;51.952;7.618;2023-09-07T06:44:14;6.65;;;3.13;;
3083;SDS011;1552;51.952;7.618;2023-09-07T06:46:46;5.85;;;3.72;;
3083;SDS011;1552;51.952;7.618;2023-09-07T06:49:18;7.32;;;3.85;;
3083;SDS011;1552;51.952;7.618;2023-09-07T06:51:45;8.23;;;4.45;;
3083;SDS011;1552;51.952;7.618;2023-09-07T06:54:12;6.38;;;3.38;;
3083;SDS011;1552;51.952;7.618;2023-09-07T06:56:39;8.80;;;3.95;;
3083;SDS011;1552;51.952;7.618;2023-09-07T06:59:05;10.13;;;3.88;;
3083;SDS011;1552;51.952;7.618;2023-09-07T07:01:32;6.95;;;4.03;;
3083;SDS011;1552;51.952;7.618;2023-09-07T07:03:58;6.30;;;4.40;;
3083;SDS011;1552;51.952;7.618;2023-09-07T07:06:26;8.10;;;4.75;;
3083;SDS011;1552;51.952;7.618;2023-09-07T07:08:54;5.03;;;3.80;;
3083;SDS011;1552;51.952;7.618;2023-09-07T07:11:21;6.20;;;4.30;;
3083;SDS011;1552;51.952;7.618;2023-09-07T07:13:47;6.28;;;3.38;;
3083;SDS011;1552;51.952;7.618;2023-09-07T07:16:13;8.07;;;4.78;;
3083;SDS011;1552;51.952;7.618;2023-09-07T07:18:40;5.35;;;3.80;;
3083;SDS011;1552;51.952;7.618;2023-09-07T07:21:06;6.13;;;3.30;;
3083;SDS011;1552;51.952;7.618;2023-09-07T07:23:35;9.60;;;3.50;;
3083;SDS011;1552;51.952;7.618;2023-09-07T07:26:02;4.85;;;2.80;;
3083;SDS011;1552;51.952;7.618;2023-09-07T07:28:28;6.75;;;4.03;;
3083;SDS011;1552;51.952;7.618;2023-09-07T07:30:55;7.25;;;3.75;;
3083;SDS011;1552;51.952;7.618;2023-09-07T07:33:21;5.85;;;3.40;;
3083;SDS011;1552;51.952;7.618;2023-09-07T07:35:48;5.38;;;2.80;;
3083;SDS011;1552;51.952;7.618;2023-09-07T07:38:14;5.13;;;3.33;;
3083;SDS011;1552;51.952;7.618;2023-09-07T07:40:42;6.60;;;3.40;;
3083;SDS011;1552;51.952;7.618;2023-09-07T07:43:08;3.75;;;3.25;;
3083;SDS011;1552;51.952;7.618;2023-09-07T07:45:36;5.95;;;2.88;;
3083;SDS011;1552;51.952;7.618;2023-09-07T07:48:04;7.88;;;3.60;;
3083;SDS011;1552;51.952;7.618;2023-09-07T07:50:35;6.15;;;3.58;;
3083;SDS011;1552;51.952;7.618;2023-09-07T07:53:01;6.68;;;3.20;;
3083;SDS011;1552;51.952;7.618;2023-09-07T07:55:28;5.25;;;3.38;;
3083;SDS011;1552;51.952;7.618;2023-09-07T07:57:55;5.55;;;3.28;;
3083;SDS011;1552;51.952;7.618;2023-09-07T08:00:22;5.25;;;2.78;;
3083;SDS011;1552;51.952;7.618;2023-09-07T08:02:49;5.75;;;2.85;;
3083;SDS011;1552;51.952;7.618;2023-09-07T08:05:15;7.50;;;3.15;;
3083;SDS011;1552;51.952;7.618;2023-09-07T08:07:42;4.78;;;2.78;;
3083;SDS011;1552;51.952;7.618;2023-09-07T08:10:08;5.78;;;3.30;;
3083;SDS011;1552;51.952;7.618;2023-09-07T08:12:35;4.30;;;3.30;;
3083;SDS011;1552;51.952;7.618;2023-09-07T08:15:03;5.25;;;3.25;;
3083;SDS011;1552;51.952;7.618;2023-09-07T08:17:30;6.28;;;3.10;;
3083;SDS011;1552;51.952;7.618;2023-09-07T08:19:56;5.47;;;3.47;;
3083;SDS011;1552;51.952;7.618;2023-09-07T08:22:22;4.50;;;3.08;;
3083;SDS011;1552;51.952;7.618;2023-09-07T08:24:49;5.45;;;2.95;;
3083;SDS011;1552;51.952;7.618;2023-09-07T08:27:17;4.95;;;2.95;;
3083;SDS011;1552;51.952;7.618;2023-09-07T08:29:47;4.60;;;3.08;;
3083;SDS011;1552;51.952;7.618;2023-09-07T08:32:19;5.88;;;3.35;;
3083;SDS011;1552;51.952;7.618;2023-09-07T08:34:46;7.65;;;4.03;;
3083;SDS011;1552;51.952;7.618;2023-09-07T08:37:15;5.05;;;3.00;;
3083;SDS011;1552;51.952;7.618;2023-09-07T08:39:42;5.72;;;3.13;;
3083;SDS011;1552;51.952;7.618;2023-09-07T08:42:08;7.22;;;3.17;;
3083;SDS011;1552;51.952;7.618;2023-09-07T08:44:36;3.40;;;2.50;;
3083;SDS011;1552;51.952;7.618;2023-09-07T08:47:03;11.02;;;3.53;;
3083;SDS011;1552;51.952;7.618;2023-09-07T08:49:32;6.65;;;2.92;;
3083;SDS011;1552;51.952;7.618;2023-09-07T08:51:59;3.72;;;2.67;;
3083;SDS011;1552;51.952;7.618;2023-09-07T08:54:26;4.68;;;2.70;;
3083;SDS011;1552;51.952;7.618;2023-09-07T08:56:53;6.28;;;3.35;;
3083;SDS011;1552;51.952;7.618;2023-09-07T08:59:22;4.93;;;3.28;;
3083;SDS011;1552;51.952;7.618;2023-09-07T09:01:48;6.75;;;3.30;;
3083;SDS011;1552;51.952;7.618;2023-09-07T09:04:14;6.03;;;3.13;;
3083;SDS011;1552;51.952;7.618;2023-09-07T09:06:42;3.97;;;2.60;;
3083;SDS011;1552;51.952;7.618;2023-09-07T09:09:09;5.70;;;3.15;;
3083;SDS011;1552;51.952;7.618;2023-09-07T09:11:38;5.55;;;3.03;;
3083;SDS011;1552;51.952;7.618;2023-09-07T09:14:05;8.20;;;3.55;;
3083;SDS011;1552;51.952;7.618;2023-09-07T09:16:37;7.20;;;3.60;;
3083;SDS011;1552;51.952;7.618;2023-09-07T09:19:03;5.05;;;3.17;;
3083;SDS011;1552;51.952;7.618;2023-09-07T09:21:30;6.28;;;3.38;;
3083;SDS011;1552;51.952;7.618;2023-09-07T09:23:58;4.15;;;3.03;;
3083;SDS011;1552;51.952;7.618;2023-09-07T09:26:25;4.90;;;3.05;;
3083;SDS011;1552;51.952;7.618;2023-09-07T09:28:51;5.95;;;3.53;;
3083;SDS011;1552;51.952;7.618;2023-09-07T09:31:18;8.65;;;3.88;;
3083;SDS011;1552;51.952;7.618;2023-09-07T09:33:47;6.60;;;3.50;;
3083;SDS011;1552;51.952;7.618;2023-09-07T09:36:14;7.30;;;3.15;;
3083;SDS011;1552;51.952;7.618;2023-09-07T09:38:46;7.30;;;3.22;;
3083;SDS011;1552;51.952;7.618;2023-09-07T09:41:14;5.43;;;2.92;;
3083;SDS011;1552;51.952;7.618;2023-09-07T09:43:42;4.03;;;3.60;;
3083;SDS011;1552;51.952;7.618;2023-09-07T09:46:11;6.40;;;3.28;;
3083;SDS011;1552;51.952;7.618;2023-09-07T09:48:39;2.72;;;2.50;;
3083;SDS011;1552;51.952;7.618;2023-09-07T09:51:06;4.10;;;2.83;;
3083;SDS011;1552;51.952;7.618;2023-09-07T09:53:33;5.93;;;2.88;;
3083;SDS011;1552;51.952;7.618;2023-09-07T09:55:59;6.07;;;2.88;;
3083;SDS011;1552;51.952;7.618;2023-09-07T09:58:30;4.95;;;3.22;;
3083;SDS011;1552;51.952;7.618;2023-09-07T10:00:59;7.32;;;3.67;;
3083;SDS011;1552;51.952;7.618;2023-09-07T10:03:31;5.18;;;3.03;;
3083;SDS011;1552;51.952;7.618;2023-09-07T10:06:06;5.82;;;2.80;;
3083;SDS011;1552;51.952;7.618;2023-09-07T10:08:36;5.03;;;2.58;;
3083;SDS011;1552;51.952;7.618;2023-09-07T10:11:07;5.30;;;2.90;;
3083;SDS011;1552;51.952;7.618;2023-09-07T10:13:35;3.70;;;2.78;;
3083;SDS011;1552;51.952;7.618;2023-09-07T10:16:02;5.45;;;2.85;;
3083;SDS011;1552;51.952;7.618;2023-09-07T10:18:38;6.05;;;3.03;;
3083;SDS011;1552;51.952;7.618;2023-09-07T10:21:06;5.22;;;3.33;;
3083;SDS011;1552;51.952;7.618;2023-09-07T10:23:35;4.85;;;3.17;;
3083;SDS011;1552;51.952;7.618;2023-09-07T10:26:02;7.00;;;2.80;;
3083;SDS011;1552;51.952;7.618;2023-09-07T10:28:29;7.05;;;3.10;;
3083;SDS011;1552;51.952;7.618;2023-09-07T10:31:01;4.95;;;3.03;;
3083;SDS011;1552;51.952;7.618;2023-09-07T10:33:29;6.43;;;3.28;;
3083;SDS011;1552;51.952;7.618;2023-09-07T10:35:56;19.05;;;3.08;;
3083;SDS011;1552;51.952;7.618;2023-09-07T10:38:22;5.85;;;2.85;;
3083;SDS011;1552;51.952;7.618;2023-09-07T10:40:54;8.68;;;3.42;;
3083;SDS011;1552;51.952;7.618;2023-09-07T10:43:22;4.88;;;3.40;;
3083;SDS011;1552;51.952;7.618;2023-09-07T10:45:48;6.55;;;3.22;;
3083;SDS011;1552;51.952;7.618;2023-09-07T10:48:16;5.85;;;3.10;;
3083;SDS011;1552;51.952;7.618;2023-09-07T10:50:43;5.20;;;3.53;;
3083;SDS011;1552;51.952;7.618;2023-09-07T10:53:11;5.90;;;2.72;;
3083;SDS011;1552;51.952;7.618;2023-09-07T10:55:38;4.30;;;2.75;;
3083;SDS011;1552;51.952;7.618;2023-09-07T10:58:05;4.72;;;2.75;;
3083;SDS011;1552;51.952;7.618;2023-09-07T11:00:31;4.65;;;3.17;;
3083;SDS011;1552;51.952;7.618;2023-09-07T11:02:58;4.43;;;3.28;;
3083;SDS011;1552;51.952;7.618;2023-09-07T11:05:26;4.82;;;2.75;;
3083;SDS011;1552;51.952;7.618;2023-09-07T11:07:52;5.22;;;3.40;;
3083;SDS011;1552;51.952;7.618;2023-09-07T11:10:20;10.50;;;3.13;;
3083;SDS011;1552;51.952;7.618;2023-09-07T11:12:47;9.18;;;2.75;;
3083;SDS011;1552;51.952;7.618;2023-09-07T11:15:13;6.00;;;3.22;;
3083;SDS011;1552;51.952;7.618;2023-09-07T11:17:40;4.43;;;2.72;;
3083;SDS011;1552;51.952;7.618;2023-09-07T11:20:07;4.10;;;2.33;;
3083;SDS011;1552;51.952;7.618;2023-09-07T11:22:36;4.30;;;2.85;;
3083;SDS011;1552;51.952;7.618;2023-09-07T11:25:05;7.15;;;2.67;;
3083;SDS011;1552;51.952;7.618;2023-09-07T11:27:31;4.90;;;2.72;;
3083;SDS011;1552;51.952;7.618;2023-09-07T11:29:58;3.80;;;2.70;;
3083;SDS011;1552;51.952;7.618;2023-09-07T11:32:33;5.15;;;2.50;;
3083;SDS011;1552;51.952;7.618;2023-09-07T11:34:59;6.38;;;2.70;;
3083;SDS011;1552;51.952;7.618;2023-09-07T11:37:26;6.15;;;3.30;;
3083;SDS011;1552;51.952;7.618;2023-09-07T11:39:54;4.40;;;2.42;;
3083;SDS011;1552;51.952;7.618;2023-09-07T11:42:22;6.65;;;2.35;;
3083;SDS011;1552;51.952;7.618;2023-09-07T11:44:49;4.75;;;2.45;;
3083;SDS011;1552;51.952;7.618;2023-09-07T11:47:15;5.85;;;3.08;;
3083;SDS011;1552;51.952;7.618;2023-09-07T11:49:41;5.25;;;2.67;;
3083;SDS011;1552;51.952;7.618;2023-09-07T11:52:08;7.53;;;3.13;;
3083;SDS011;1552;51.952;7.618;2023-09-07T11:54:34;4.10;;;3.05;;
3083;SDS011;1552;51.952;7.618;2023-09-07T11:57:04;4.88;;;3.28;;
3083;SDS011;1552;51.952;7.618;2023-09-07T11:59:30;4.40;;;2.70;;
3083;SDS011;1552;51.952;7.618;2023-09-07T12:01:57;5.65;;;2.78;;
3083;SDS011;1552;51.952;7.618;2023-09-07T12:04:24;4.28;;;2.40;;
3083;SDS011;1552;51.952;7.618;2023-09-07T12:06:50;3.38;;;2.50;;
3083;SDS011;1552;51.952;7.618;2023-09-07T12:09:16;4.38;;;2.67;;
3083;SDS011;1552;51.952;7.618;2023-09-07T12:11:43;3.80;;;2.70;;
3083;SDS011;1552;51.952;7.618;2023-09-07T12:14:11;6.40;;;2.92;;
3083;SDS011;1552;51.952;7.618;2023-09-07T12:16:37;3.75;;;2.65;;
3083;SDS011;1552;51.952;7.618;2023-09-07T12:19:04;5.53;;;3.03;;
3083;SDS011;1552;51.952;7.618;2023-09-07T12:21:31;4.85;;;2.40;;
3083;SDS011;1552;51.952;7.618;2023-09-07T12:23:57;3.97;;;2.50;;
3083;SDS011;1552;51.952;7.618;2023-09-07T12:26:24;4.40;;;2.65;;
3083;SDS011;1552;51.952;7.618;2023-09-07T12:28:50;5.63;;;2.55;;
3083;SDS011;1552;51.952;7.618;2023-09-07T12:31:18;8.27;;;2.20;;
3083;SDS011;1552;51.952;7.618;2023-09-07T12:33:44;4.40;;;3.15;;
3083;SDS011;1552;51.952;7.618;2023-09-07T12:36:11;3.25;;;2.33;;
3083;SDS011;1552;51.952;7.618;2023-09-07T12:38:37;4.60;;;2.35;;
3083;SDS011;1552;51.952;7.618;2023-09-07T12:41:03;4.35;;;3.05;;
3083;SDS011;1552;51.952;7.618;2023-09-07T12:43:30;4.80;;;2.95;;
3083;SDS011;1552;51.952;7.618;2023-09-07T12:45:57;10.88;;;3.10;;
3083;SDS011;1552;51.952;7.618;2023-09-07T12:48:25;4.05;;;2.47;;
3083;SDS011;1552;51.952;7.618;2023-09-07T12:50:51;4.63;;;2.33;;
3083;SDS011;1552;51.952;7.618;2023-09-07T12:53:18;3.50;;;2.80;;
3083;SDS011;1552;51.952;7.618;2023-09-07T12:55:44;3.15;;;2.40;;
3083;SDS011;1552;51.952;7.618;2023-09-07T12:58:11;6.90;;;2.97;;
3083;SDS011;1552;51.952;7.618;2023-09-07T13:00:37;3.88;;;2.30;;
3083;SDS011;1552;51.952;7.618;2023-09-07T13:03:04;4.30;;;2.58;;
3083;SDS011;1552;51.952;7.618;2023-09-07T13:05:32;6.75;;;2.45;;
3083;SDS011;1552;51.952;7.618;2023-09-07T13:08:00;4.07;;;2.60;;
3083;SDS011;1552;51.952;7.618;2023-09-07T13:10:27;5.55;;;2.42;;
3083;SDS011;1552;51.952;7.618;2023-09-07T13:12:54;5.22;;;2.42;;
3083;SDS011;1552;51.952;7.618;2023-09-07T13:15:20;3.90;;;2.05;;
3083;SDS011;1552;51.952;7.618;2023-09-07T13:17:47;4.82;;;2.97;;
3083;SDS011;1552;51.952;7.618;2023-09-07T13:20:14;3.83;;;2.35;;
3083;SDS011;1552;51.952;7.618;2023-09-07T13:22:42;4.40;;;2.15;;
3083;SDS011;1552;51.952;7.618;2023-09-07T13:25:09;5.13;;;2.55;;
3083;SDS011;1552;51.952;7.618;2023-09-07T13:27:37;3.25;;;2.50;;
3083;SDS011;1552;51.952;7.618;2023-09-07T13:30:09;4.25;;;2.72;;
3083;SDS011;1552;51.952;7.618;2023-09-07T13:32:37;4.07;;;2.45;;
3083;SDS011;1552;51.952;7.618;2023-09-07T13:35:05;4.05;;;1.92;;
3083;SDS011;1552;51.952;7.618;2023-09-07T13:37:32;3.75;;;2.60;;
3083;SDS011;1552;51.952;7.618;2023-09-07T13:40:01;5.43;;;3.08;;
3083;SDS011;1552;51.952;7.618;2023-09-07T13:42:28;7.93;;;2.63;;
3083;SDS011;1552;51.952;7.618;2023-09-07T13:44:55;4.97;;;2.50;;
3083;SDS011;1552;51.952;7.618;2023-09-07T13:47:21;3.92;;;2.67;;
3083;SDS011;1552;51.952;7.618;2023-09-07T13:49:48;3.60;;;2.47;;
3083;SDS011;1552;51.952;7.618;2023-09-07T13:52:14;3.55;;;2.33;;
3083;SDS011;1552;51.952;7.618;2023-09-07T13:54:41;4.30;;;2.47;;
3083;SDS011;1552;51.952;7.618;2023-09-07T13:57:08;3.72;;;2.63;;
3083;SDS011;1552;51.952;7.618;2023-09-07T13:59:35;5.38;;;2.75;;
3083;SDS011;1552;51.952;7.618;2023-09-07T14:02:01;4.53;;;2.72;;
3083;SDS011;1552;51.952;7.618;2023-09-07T14:04:28;3.67;;;2.35;;
3083;SDS011;1552;51.952;7.618;2023-09-07T14:06:56;6.30;;;2.53;;
3083;SDS011;1552;51.952;7.618;2023-09-07T14:09:22;6.18;;;2.20;;
3083;SDS011;1552;51.952;7.618;2023-09-07T14:11:49;4.35;;;2.33;;
3083;SDS011;1552;51.952;7.618;2023-09-07T14:14:19;3.67;;;1.90;;
3083;SDS011;1552;51.952;7.618;2023-09-07T14:16:46;3.25;;;2.47;;
3083;SDS011;1552;51.952;7.618;2023-09-07T14:19:12;3.30;;;2.42;;
3083;SDS011;1552;51.952;7.618;2023-09-07T14:21:39;3.50;;;2.60;;
3083;SDS011;1552;51.952;7.618;2023-09-07T14:24:06;5.43;;;2.28;;
3083;SDS011;1552;51.952;7.618;2023-09-07T14:26:32;3.35;;;2.50;;
3083;SDS011;1552;51.952;7.618;2023-09-07T14:28:58;5.20;;;2.83;;
3083;SDS011;1552;51.952;7.618;2023-09-07T14:31:26;6.05;;;2.65;;
3083;SDS011;1552;51.952;7.618;2023-09-07T14:33:52;6.28;;;2.80;;
3083;SDS011;1552;51.952;7.618;2023-09-07T14:36:19;5.80;;;2.72;;
3083;SDS011;1552;51.952;7.618;2023-09-07T14:38:45;2.20;;;2.00;;
3083;SDS011;1552;51.952;7.618;2023-09-07T14:41:13;4.90;;;2.33;;
3083;SDS011;1552;51.952;7.618;2023-09-07T14:43:44;4.05;;;2.72;;
3083;SDS011;1552;51.952;7.618;2023-09-07T14:46:10;3.72;;;2.50;;
3083;SDS011;1552;51.952;7.618;2023-09-07T14:48:38;4.25;;;2.17;;
3083;SDS011;1552;51.952;7.618;2023-09-07T14:51:04;3.53;;;2.97;;
3083;SDS011;1552;51.952;7.618;2023-09-07T14:53:30;3.55;;;2.30;;
3083;SDS011;1552;51.952;7.618;2023-09-07T14:55:57;3.13;;;2.30;;
3083;SDS011;1552;51.952;7.618;2023-09-07T14:58:23;4.18;;;2.22;;
3083;SDS011;1552;51.952;7.618;2023-09-07T15:00:49;5.20;;;2.55;;
3083;SDS011;1552;51.952;7.618;2023-09-07T15:03:16;4.40;;;2.33;;
3083;SDS011;1552;51.952;7.618;2023-09-07T15:05:44;4.93;;;2.30;;
3083;SDS011;1552;51.952;7.618;2023-09-07T15:08:10;2.75;;;2.40;;
3083;SDS011;1552;51.952;7.618;2023-09-07T15:10:36;4.40;;;2.45;;
3083;SDS011;1552;51.952;7.618;2023-09-07T15:13:03;3.47;;;2.30;;
3083;SDS011;1552;51.952;7.618;2023-09-07T15:15:31;3.97;;;2.15;;